24 Sep 2020 07:20 UTC 2020268+07:20 UTC

Overview Datums Bench Marks Data Query Site Visit Daily QC Messages Attributes

042: Nueces Delta 2

27° 53' 19" N   97° 34' 10" W
NUDE2
The Coastal Bend Bays & Estuaries Program Coastal Bend Bays and Estuaries Program

Station Information

Nueces Delta 2
Nueces Delta 2
more pictures
 
Station Name:Nueces Delta 2
DNR ID:042
Location:27° 53' 19" N, 97° 34' 10" W

Water Level Forecasts

Latest Observations

Series Metric English Marine Observed at
Water Temperature 26.5 °C 79.7 °F 79.7 °F Sep 24 02:06 CDT
00h06m ago
Salinity 4.800 psu 4.800 psu 4.800 psu Sep 24 02:06 CDT
00h06m ago

Maps

Nueces Delta 2
All Stations in Area
Entire Network
 

Recent Observations

Date/Time Water
Temp (°F)
Sal (psu)
Sep 24 01:00 CDT 80.1 5.000
Sep 24 00:00 CDT 80.2 5.200
Sep 23 23:00 CDT 80.8 5.400
Sep 23 22:00 CDT 81.3 5.600
Sep 23 21:00 CDT 81.9 5.900
Sep 23 20:00 CDT 82.4 6.100
Sep 23 19:00 CDT 82.9 6.100
Sep 23 18:00 CDT 83.3 6.100
Sep 23 17:00 CDT 83.3 6.200
Sep 23 16:00 CDT 82.9 6.100
Sep 23 15:00 CDT 82.6 6.000
Sep 23 14:00 CDT 81.7 5.800
Sep 23 13:00 CDT 80.6 5.700
Sep 23 12:00 CDT 79.0 5.000
Sep 23 11:00 CDT 77.7 5.000
Sep 23 10:00 CDT 76.8 4.900
Sep 23 09:00 CDT 76.1 4.700
Sep 23 08:00 CDT 76.1 4.800
Sep 23 07:00 CDT 76.3 5.100
Sep 23 06:00 CDT 76.5 5.000
Sep 23 05:00 CDT 76.8 4.900
Sep 23 04:00 CDT 77.0 5.100
Sep 23 03:00 CDT 77.4 5.200
Sep 23 02:00 CDT 77.5 5.100

Historical Data Availability